Emmenbrucke, Switzerland
Current Conditions -  °F | °C
As of 11:50 AM on Thursday 23 Oct 2014 (Local Time) from LSME Reporting Station
Overcast Overcast  
Wind Chill: 46°   Ceiling: 6900
Heat Index: 48°   Visibility: 6mi
Dew Point: 36°   Wind: 5mph
Humidity: 62%   Direction: 300°WNW
Pressure: 30.33"   Gusts: NA
Location:  47.07°N, 8.27°E
Report Text: LSME 230950Z AUTO 30004KT 250V020 9999NDV OVC069 09/02 Q1027 RMK WHT
Loading
Personal Weather Stations






























Interactive Weather Map
Tropical Storm Tracking
New forecast layout! Learn more

10-Day Weather Forecast

Advertisements
Track Severe Weather on mobile